sensor_id;sensor_type;location;lat;lon;timestamp;pressure;altitude;pressure_sealevel;temperature;humidity
70304;BME280;57712;48.752;11.348;2024-03-02T00:00:38;96518.47;;;8.09;100.00
70304;BME280;57712;48.752;11.348;2024-03-02T00:03:06;96512.34;;;8.05;100.00
70304;BME280;57712;48.752;11.348;2024-03-02T00:05:34;96518.66;;;8.02;100.00
70304;BME280;57712;48.752;11.348;2024-03-02T00:08:01;96512.00;;;8.03;100.00
70304;BME280;57712;48.752;11.348;2024-03-02T00:10:37;96509.25;;;8.03;100.00
70304;BME280;57712;48.752;11.348;2024-03-02T00:13:07;96512.81;;;8.00;100.00
70304;BME280;57712;48.752;11.348;2024-03-02T00:15:47;96503.13;;;7.99;100.00
70304;BME280;57712;48.752;11.348;2024-03-02T00:18:18;96500.72;;;8.01;100.00
70304;BME280;57712;48.752;11.348;2024-03-02T00:20:45;96514.88;;;7.96;100.00
70304;BME280;57712;48.752;11.348;2024-03-02T00:23:16;96507.03;;;7.98;100.00
70304;BME280;57712;48.752;11.348;2024-03-02T00:25:48;96503.13;;;7.99;100.00
70304;BME280;57712;48.752;11.348;2024-03-02T00:28:22;96505.34;;;8.04;100.00
70304;BME280;57712;48.752;11.348;2024-03-02T00:30:57;96511.38;;;7.96;100.00
70304;BME280;57712;48.752;11.348;2024-03-02T00:33:33;96503.13;;;7.99;100.00
70304;BME280;57712;48.752;11.348;2024-03-02T00:36:01;96505.41;;;8.01;100.00
70304;BME280;57712;48.752;11.348;2024-03-02T00:38:33;96505.34;;;8.04;100.00
70304;BME280;57712;48.752;11.348;2024-03-02T00:41:05;96498.38;;;8.03;100.00
70304;BME280;57712;48.752;11.348;2024-03-02T00:46:21;96501.16;;;8.00;100.00
70304;BME280;57712;48.752;11.348;2024-03-02T00:48:52;96497.66;;;7.99;100.00
70304;BME280;57712;48.752;11.348;2024-03-02T00:51:22;96504.06;;;7.93;100.00
70304;BME280;57712;48.752;11.348;2024-03-02T00:53:51;96504.91;;;7.90;100.00
70304;BME280;57712;48.752;11.348;2024-03-02T00:56:19;96503.63;;;7.94;100.00
70304;BME280;57712;48.752;11.348;2024-03-02T00:58:46;96506.00;;;8.08;100.00
70304;BME280;57712;48.752;11.348;2024-03-02T01:01:13;96505.41;;;8.17;100.00
70304;BME280;57712;48.752;11.348;2024-03-02T01:03:41;96508.66;;;8.12;100.00
70304;BME280;57712;48.752;11.348;2024-03-02T01:06:08;96505.16;;;8.11;100.00
70304;BME280;57712;48.752;11.348;2024-03-02T01:08:38;96515.22;;;8.15;100.00
70304;BME280;57712;48.752;11.348;2024-03-02T01:11:05;96522.38;;;8.08;100.00
70304;BME280;57712;48.752;11.348;2024-03-02T01:13:32;96519.81;;;8.18;100.00
70304;BME280;57712;48.752;11.348;2024-03-02T01:16:00;96516.75;;;8.16;100.00
70304;BME280;57712;48.752;11.348;2024-03-02T01:18:28;96504.47;;;8.07;100.00
70304;BME280;57712;48.752;11.348;2024-03-02T01:20:55;96503.81;;;8.03;100.00
70304;BME280;57712;48.752;11.348;2024-03-02T01:23:23;96507.88;;;8.11;100.00
70304;BME280;57712;48.752;11.348;2024-03-02T01:25:51;96506.19;;;8.01;100.00
70304;BME280;57712;48.752;11.348;2024-03-02T01:28:18;96505.66;;;7.90;100.00
70304;BME280;57712;48.752;11.348;2024-03-02T01:30:48;96510.03;;;8.04;100.00
70304;BME280;57712;48.752;11.348;2024-03-02T01:33:19;96509.25;;;8.03;100.00
70304;BME280;57712;48.752;11.348;2024-03-02T01:35:46;96515.75;;;7.93;100.00
70304;BME280;57712;48.752;11.348;2024-03-02T01:38:14;96519.81;;;7.85;100.00
70304;BME280;57712;48.752;11.348;2024-03-02T01:40:41;96515.81;;;7.90;100.00
70304;BME280;57712;48.752;11.348;2024-03-02T01:43:08;96526.53;;;7.80;100.00
70304;BME280;57712;48.752;11.348;2024-03-02T01:45:35;96532.84;;;7.77;100.00
70304;BME280;57712;48.752;11.348;2024-03-02T01:48:06;96534.47;;;7.91;100.00
70304;BME280;57712;48.752;11.348;2024-03-02T01:50:34;96519.66;;;7.92;100.00
70304;BME280;57712;48.752;11.348;2024-03-02T01:53:01;96521.50;;;7.79;100.00
70304;BME280;57712;48.752;11.348;2024-03-02T01:55:30;96511.13;;;7.90;100.00
70304;BME280;57712;48.752;11.348;2024-03-02T01:57:57;96520.69;;;7.82;100.00
70304;BME280;57712;48.752;11.348;2024-03-02T02:00:25;96514.00;;;7.67;100.00
70304;BME280;57712;48.752;11.348;2024-03-02T02:02:53;96502.94;;;7.90;100.00
70304;BME280;57712;48.752;11.348;2024-03-02T02:05:21;96506.53;;;7.87;100.00
70304;BME280;57712;48.752;11.348;2024-03-02T02:07:48;96522.88;;;7.87;100.00
70304;BME280;57712;48.752;11.348;2024-03-02T02:10:15;96505.59;;;7.94;100.00
70304;BME280;57712;48.752;11.348;2024-03-02T02:12:42;96500.91;;;7.94;100.00
70304;BME280;57712;48.752;11.348;2024-03-02T02:15:25;96502.59;;;7.88;100.00
70304;BME280;57712;48.752;11.348;2024-03-02T02:17:53;96494.25;;;7.79;100.00
70304;BME280;57712;48.752;11.348;2024-03-02T02:20:20;96490.31;;;7.80;100.00
70304;BME280;57712;48.752;11.348;2024-03-02T02:23:01;96497.66;;;7.83;100.00
70304;BME280;57712;48.752;11.348;2024-03-02T02:25:28;96485.72;;;7.77;100.00
70304;BME280;57712;48.752;11.348;2024-03-02T02:27:56;96491.03;;;7.84;100.00
70304;BME280;57712;48.752;11.348;2024-03-02T02:30:29;96483.94;;;7.87;100.00
70304;BME280;57712;48.752;11.348;2024-03-02T02:32:56;96482.81;;;7.68;100.00
70304;BME280;57712;48.752;11.348;2024-03-02T02:35:23;96497.72;;;7.63;100.00
70304;BME280;57712;48.752;11.348;2024-03-02T02:37:54;96492.38;;;7.76;100.00
70304;BME280;57712;48.752;11.348;2024-03-02T02:40:22;96479.66;;;7.69;100.00
70304;BME280;57712;48.752;11.348;2024-03-02T02:42:48;96482.22;;;7.76;100.00
70304;BME280;57712;48.752;11.348;2024-03-02T02:45:17;96474.91;;;7.73;100.00
70304;BME280;57712;48.752;11.348;2024-03-02T02:47:44;96483.34;;;7.79;100.00
70304;BME280;57712;48.752;11.348;2024-03-02T02:50:12;96476.34;;;7.78;100.00
70304;BME280;57712;48.752;11.348;2024-03-02T02:52:40;96477.81;;;7.82;100.00
70304;BME280;57712;48.752;11.348;2024-03-02T02:55:09;96462.47;;;7.72;100.00
70304;BME280;57712;48.752;11.348;2024-03-02T02:57:37;96477.69;;;7.70;100.00
70304;BME280;57712;48.752;11.348;2024-03-02T03:00:13;96469.47;;;7.73;100.00
70304;BME280;57712;48.752;11.348;2024-03-02T03:02:44;96477.44;;;7.80;100.00
70304;BME280;57712;48.752;11.348;2024-03-02T03:05:12;96478.59;;;7.83;100.00
70304;BME280;57712;48.752;11.348;2024-03-02T03:07:40;96484.28;;;7.89;100.00
70304;BME280;57712;48.752;11.348;2024-03-02T03:10:09;96478.91;;;7.85;100.00
70304;BME280;57712;48.752;11.348;2024-03-02T03:12:36;96478.91;;;7.85;100.00
70304;BME280;57712;48.752;11.348;2024-03-02T03:15:04;96486.50;;;7.94;100.00
70304;BME280;57712;48.752;11.348;2024-03-02T03:17:35;96477.38;;;8.00;100.00
70304;BME280;57712;48.752;11.348;2024-03-02T03:20:02;96484.34;;;8.01;100.00
70304;BME280;57712;48.752;11.348;2024-03-02T03:22:30;96482.00;;;8.03;100.00
70304;BME280;57712;48.752;11.348;2024-03-02T03:25:01;96481.13;;;8.06;100.00
70304;BME280;57712;48.752;11.348;2024-03-02T03:27:30;96478.13;;;8.01;100.00
70304;BME280;57712;48.752;11.348;2024-03-02T03:29:57;96487.44;;;8.03;100.00
70304;BME280;57712;48.752;11.348;2024-03-02T03:32:24;96486.69;;;8.03;100.00
70304;BME280;57712;48.752;11.348;2024-03-02T03:34:51;96493.25;;;8.05;100.00
70304;BME280;57712;48.752;11.348;2024-03-02T03:37:18;96489.31;;;8.06;100.00
70304;BME280;57712;48.752;11.348;2024-03-02T03:39:44;96494.78;;;8.06;100.00
70304;BME280;57712;48.752;11.348;2024-03-02T03:42:11;96499.03;;;8.07;100.00
70304;BME280;57712;48.752;11.348;2024-03-02T03:44:38;96498.25;;;8.07;100.00
70304;BME280;57712;48.752;11.348;2024-03-02T03:47:06;96499.78;;;8.08;100.00
70304;BME280;57712;48.752;11.348;2024-03-02T03:49:33;96502.78;;;7.97;100.00
70304;BME280;57712;48.752;11.348;2024-03-02T03:51:59;96509.25;;;8.03;100.00
70304;BME280;57712;48.752;11.348;2024-03-02T03:54:26;96502.44;;;8.11;100.00
70304;BME280;57712;48.752;11.348;2024-03-02T03:56:53;96515.66;;;8.13;100.00
70304;BME280;57712;48.752;11.348;2024-03-02T03:59:20;96511.81;;;8.10;100.00
70304;BME280;57712;48.752;11.348;2024-03-02T04:01:47;96517.09;;;8.01;100.00
70304;BME280;57712;48.752;11.348;2024-03-02T04:04:13;96514.72;;;8.03;100.00
70304;BME280;57712;48.752;11.348;2024-03-02T04:06:40;96519.31;;;8.06;100.00
70304;BME280;57712;48.752;11.348;2024-03-02T04:09:07;96521.72;;;8.04;100.00
70304;BME280;57712;48.752;11.348;2024-03-02T04:11:34;96519.31;;;8.06;100.00
70304;BME280;57712;48.752;11.348;2024-03-02T04:14:01;96515.91;;;8.02;100.00
70304;BME280;57712;48.752;11.348;2024-03-02T04:16:27;96523.25;;;8.05;100.00
70304;BME280;57712;48.752;11.348;2024-03-02T04:18:55;96525.63;;;8.03;100.00
70304;BME280;57712;48.752;11.348;2024-03-02T04:21:21;96515.50;;;8.04;100.00
70304;BME280;57712;48.752;11.348;2024-03-02T04:23:48;96526.81;;;8.02;100.00
70304;BME280;57712;48.752;11.348;2024-03-02T04:26:15;96521.00;;;8.00;100.00
70304;BME280;57712;48.752;11.348;2024-03-02T04:28:46;96524.16;;;7.99;100.00
70304;BME280;57712;48.752;11.348;2024-03-02T04:31:15;96523.41;;;7.98;100.00
70304;BME280;57712;48.752;11.348;2024-03-02T04:33:43;96521.97;;;7.94;100.00
70304;BME280;57712;48.752;11.348;2024-03-02T04:36:10;96527.13;;;7.88;100.00
70304;BME280;57712;48.752;11.348;2024-03-02T04:38:37;96521.50;;;7.79;100.00
70304;BME280;57712;48.752;11.348;2024-03-02T04:41:05;96523.41;;;7.82;100.00
70304;BME280;57712;48.752;11.348;2024-03-02T04:43:34;96531.22;;;7.80;100.00
70304;BME280;57712;48.752;11.348;2024-03-02T04:46:01;96530.03;;;7.81;100.00
70304;BME280;57712;48.752;11.348;2024-03-02T04:48:28;96533.94;;;7.80;100.00
70304;BME280;57712;48.752;11.348;2024-03-02T04:50:55;96527.81;;;7.76;100.00
70304;BME280;57712;48.752;11.348;2024-03-02T04:53:22;96535.13;;;7.63;100.00
70304;BME280;57712;48.752;11.348;2024-03-02T04:55:49;96532.72;;;7.65;100.00
70304;BME280;57712;48.752;11.348;2024-03-02T04:58:39;96541.25;;;7.67;100.00
70304;BME280;57712;48.752;11.348;2024-03-02T05:01:05;96538.88;;;7.69;100.00
70304;BME280;57712;48.752;11.348;2024-03-02T05:03:32;96546.69;;;7.67;100.00
70304;BME280;57712;48.752;11.348;2024-03-02T05:06:01;96542.78;;;7.68;100.00
70304;BME280;57712;48.752;11.348;2024-03-02T05:08:28;96543.63;;;7.65;100.00
70304;BME280;57712;48.752;11.348;2024-03-02T05:10:54;96544.50;;;7.62;100.00
70304;BME280;57712;48.752;11.348;2024-03-02T05:13:21;96549.94;;;7.62;100.00
70304;BME280;57712;48.752;11.348;2024-03-02T05:15:48;96548.03;;;7.59;100.00
70304;BME280;57712;48.752;11.348;2024-03-02T05:18:14;96546.84;;;7.60;100.00
70304;BME280;57712;48.752;11.348;2024-03-02T05:20:41;96544.28;;;7.52;100.00
70304;BME280;57712;48.752;11.348;2024-03-02T05:23:08;96542.03;;;7.47;100.00
70304;BME280;57712;48.752;11.348;2024-03-02T05:25:35;96540.31;;;7.37;100.00
70304;BME280;57712;48.752;11.348;2024-03-02T05:28:02;96542.69;;;7.35;100.00
70304;BME280;57712;48.752;11.348;2024-03-02T05:30:28;96547.28;;;7.38;100.00
70304;BME280;57712;48.752;11.348;2024-03-02T05:32:55;96540.25;;;7.41;100.00
70304;BME280;57712;48.752;11.348;2024-03-02T05:35:22;96548.81;;;7.39;100.00
70304;BME280;57712;48.752;11.348;2024-03-02T05:37:48;96547.09;;;7.29;100.00
70304;BME280;57712;48.752;11.348;2024-03-02T05:40:15;96545.09;;;7.33;100.00
70304;BME280;57712;48.752;11.348;2024-03-02T05:42:42;96553.16;;;7.37;100.00
70304;BME280;57712;48.752;11.348;2024-03-02T05:45:08;96558.28;;;7.35;100.00
70304;BME280;57712;48.752;11.348;2024-03-02T05:47:36;96556.81;;;7.30;100.00
70304;BME280;57712;48.752;11.348;2024-03-02T05:50:03;96551.00;;;7.28;100.00
70304;BME280;57712;48.752;11.348;2024-03-02T05:52:30;96554.56;;;7.25;100.00
70304;BME280;57712;48.752;11.348;2024-03-02T05:54:57;96555.44;;;7.22;100.00
70304;BME280;57712;48.752;11.348;2024-03-02T05:57:24;96547.81;;;7.13;100.00
70304;BME280;57712;48.752;11.348;2024-03-02T06:00:16;96554.03;;;7.14;100.00
70304;BME280;57712;48.752;11.348;2024-03-02T06:02:44;96564.91;;;7.14;100.00
70304;BME280;57712;48.752;11.348;2024-03-02T06:05:11;96559.59;;;7.07;100.00
70304;BME280;57712;48.752;11.348;2024-03-02T06:07:39;96552.78;;;6.99;100.00
70304;BME280;57712;48.752;11.348;2024-03-02T06:10:06;96549.56;;;7.04;100.00
70304;BME280;57712;48.752;11.348;2024-03-02T06:12:40;96550.66;;;7.06;100.00
70304;BME280;57712;48.752;11.348;2024-03-02T06:15:08;96551.44;;;7.07;100.00
70304;BME280;57712;48.752;11.348;2024-03-02T06:17:37;96545.63;;;7.05;100.00
70304;BME280;57712;48.752;11.348;2024-03-02T06:20:04;96554.16;;;7.07;100.00
70304;BME280;57712;48.752;11.348;2024-03-02T06:22:32;96549.56;;;7.04;100.00
70304;BME280;57712;48.752;11.348;2024-03-02T06:24:59;96552.16;;;7.11;100.00
70304;BME280;57712;48.752;11.348;2024-03-02T06:27:26;96553.53;;;7.19;100.00
70304;BME280;57712;48.752;11.348;2024-03-02T06:29:52;96556.75;;;7.14;100.00
70304;BME280;57712;48.752;11.348;2024-03-02T06:32:21;96552.34;;;7.20;100.00
70304;BME280;57712;48.752;11.348;2024-03-02T06:34:49;96553.72;;;7.28;100.00
70304;BME280;57712;48.752;11.348;2024-03-02T06:37:16;96551.56;;;7.39;100.00
70304;BME280;57712;48.752;11.348;2024-03-02T06:39:44;96553.72;;;7.48;100.00
70304;BME280;57712;48.752;11.348;2024-03-02T06:42:11;96553.66;;;7.51;100.00
70304;BME280;57712;48.752;11.348;2024-03-02T06:44:37;96553.00;;;7.64;100.00
70304;BME280;57712;48.752;11.348;2024-03-02T06:47:04;96557.38;;;7.77;100.00
70304;BME280;57712;48.752;11.348;2024-03-02T06:49:31;96558.91;;;7.78;100.00
70304;BME280;57712;48.752;11.348;2024-03-02T06:52:00;96555.50;;;7.91;100.00
70304;BME280;57712;48.752;11.348;2024-03-02T06:54:31;96558.66;;;7.89;100.00
70304;BME280;57712;48.752;11.348;2024-03-02T06:57:06;96561.56;;;7.98;100.00
70304;BME280;57712;48.752;11.348;2024-03-02T06:59:39;96551.88;;;8.14;100.00
70304;BME280;57712;48.752;11.348;2024-03-02T07:02:05;96553.84;;;8.29;100.00
70304;BME280;57712;48.752;11.348;2024-03-02T07:04:34;96556.44;;;8.36;100.00
70304;BME280;57712;48.752;11.348;2024-03-02T07:07:01;96552.94;;;8.36;100.00
70304;BME280;57712;48.752;11.348;2024-03-02T07:09:28;96544.16;;;8.45;100.00
70304;BME280;57712;48.752;11.348;2024-03-02T07:11:57;96540.28;;;8.42;100.00
70304;BME280;57712;48.752;11.348;2024-03-02T07:14:24;96544.81;;;8.49;100.00
70304;BME280;57712;48.752;11.348;2024-03-02T07:17:11;96547.97;;;8.47;100.00
70304;BME280;57712;48.752;11.348;2024-03-02T07:19:40;96546.44;;;8.46;100.00
70304;BME280;57712;48.752;11.348;2024-03-02T07:22:10;96546.63;;;8.39;100.00
70304;BME280;57712;48.752;11.348;2024-03-02T07:24:49;96553.50;;;8.44;100.00
70304;BME280;57712;48.752;11.348;2024-03-02T07:27:17;96554.16;;;8.31;100.00
70304;BME280;57712;48.752;11.348;2024-03-02T07:29:49;96547.72;;;8.25;100.00
70304;BME280;57712;48.752;11.348;2024-03-02T07:32:16;96543.97;;;8.35;100.00
70304;BME280;57712;48.752;11.348;2024-03-02T07:34:46;96556.00;;;8.38;100.00
70304;BME280;57712;48.752;11.348;2024-03-02T07:37:13;96565.88;;;8.48;100.00
70304;BME280;57712;48.752;11.348;2024-03-02T07:39:39;96568.09;;;8.53;100.00
70304;BME280;57712;48.752;11.348;2024-03-02T07:42:06;96569.09;;;8.76;100.00
70304;BME280;57712;48.752;11.348;2024-03-02T07:44:34;96569.22;;;9.01;100.00
70304;BME280;57712;48.752;11.348;2024-03-02T07:47:01;96576.16;;;9.18;100.00
70304;BME280;57712;48.752;11.348;2024-03-02T07:49:28;96570.34;;;9.16;100.00
70304;BME280;57712;48.752;11.348;2024-03-02T07:51:56;96571.69;;;9.24;100.00
70304;BME280;57712;48.752;11.348;2024-03-02T07:54:23;96570.75;;;9.44;100.00
70304;BME280;57712;48.752;11.348;2024-03-02T07:56:50;96564.81;;;9.20;100.00
70304;BME280;57712;48.752;11.348;2024-03-02T07:59:17;96572.47;;;9.38;100.00
70304;BME280;57712;48.752;11.348;2024-03-02T08:01:44;96574.22;;;9.73;100.00
70304;BME280;57712;48.752;11.348;2024-03-02T08:04:11;96569.81;;;9.63;100.00
70304;BME280;57712;48.752;11.348;2024-03-02T08:06:38;96575.97;;;9.80;100.00
70304;BME280;57712;48.752;11.348;2024-03-02T08:09:05;96571.72;;;10.04;100.00
70304;BME280;57712;48.752;11.348;2024-03-02T08:11:39;96578.09;;;10.27;100.00
70304;BME280;57712;48.752;11.348;2024-03-02T08:14:05;96574.91;;;10.28;100.00
70304;BME280;57712;48.752;11.348;2024-03-02T08:16:32;96584.28;;;9.76;100.00
70304;BME280;57712;48.752;11.348;2024-03-02T08:18:59;96579.56;;;9.90;100.00
70304;BME280;57712;48.752;11.348;2024-03-02T08:21:28;96574.53;;;9.75;100.00
70304;BME280;57712;48.752;11.348;2024-03-02T08:23:57;96578.84;;;10.02;100.00
70304;BME280;57712;48.752;11.348;2024-03-02T08:26:29;96587.94;;;9.57;100.00
70304;BME280;57712;48.752;11.348;2024-03-02T08:28:58;96586.34;;;9.72;100.00
70304;BME280;57712;48.752;11.348;2024-03-02T08:31:26;96591.06;;;9.84;100.00
70304;BME280;57712;48.752;11.348;2024-03-02T08:33:52;96594.16;;;9.45;100.00
70304;BME280;57712;48.752;11.348;2024-03-02T08:36:19;96590.91;;;9.50;100.00
70304;BME280;57712;48.752;11.348;2024-03-02T08:38:48;96598.81;;;9.61;100.00
70304;BME280;57712;48.752;11.348;2024-03-02T08:41:15;96602.66;;;9.05;100.00
70304;BME280;57712;48.752;11.348;2024-03-02T08:43:42;96604.06;;;8.81;100.00
70304;BME280;57712;48.752;11.348;2024-03-02T08:46:09;96614.50;;;8.70;100.00
70304;BME280;57712;48.752;11.348;2024-03-02T08:48:36;96602.75;;;9.02;100.00
70304;BME280;57712;48.752;11.348;2024-03-02T08:51:03;96611.84;;;9.28;100.00
70304;BME280;57712;48.752;11.348;2024-03-02T08:53:32;96608.81;;;9.09;100.00
70304;BME280;57712;48.752;11.348;2024-03-02T08:56:00;96602.91;;;8.65;100.00
70304;BME280;57712;48.752;11.348;2024-03-02T08:58:28;96610.50;;;9.03;100.00
70304;BME280;57712;48.752;11.348;2024-03-02T09:00:55;96609.38;;;9.17;100.00
70304;BME280;57712;48.752;11.348;2024-03-02T09:03:22;96614.31;;;9.22;100.00
70304;BME280;57712;48.752;11.348;2024-03-02T09:05:48;96612.34;;;9.22;100.00
70304;BME280;57712;48.752;11.348;2024-03-02T09:08:15;96612.53;;;9.15;100.00
70304;BME280;57712;48.752;11.348;2024-03-02T09:10:42;96614.53;;;8.99;100.00
70304;BME280;57712;48.752;11.348;2024-03-02T09:13:10;96614.94;;;9.42;100.00
70304;BME280;57712;48.752;11.348;2024-03-02T09:15:37;96615.81;;;9.39;100.00
70304;BME280;57712;48.752;11.348;2024-03-02T09:18:06;96618.25;;;9.50;100.00
70304;BME280;57712;48.752;11.348;2024-03-02T09:20:33;96613.22;;;9.19;100.00
70304;BME280;57712;48.752;11.348;2024-03-02T09:23:00;96608.97;;;9.60;100.00
70304;BME280;57712;48.752;11.348;2024-03-02T09:25:26;96612.41;;;9.48;100.00
70304;BME280;57712;48.752;11.348;2024-03-02T09:27:53;96613.09;;;9.52;100.00
70304;BME280;57712;48.752;11.348;2024-03-02T09:30:20;96608.84;;;9.51;100.00
70304;BME280;57712;48.752;11.348;2024-03-02T09:32:47;96610.34;;;9.94;100.00
70304;BME280;57712;48.752;11.348;2024-03-02T09:35:16;96608.91;;;9.89;100.00
70304;BME280;57712;48.752;11.348;2024-03-02T09:37:42;96594.25;;;9.83;100.00
70304;BME280;57712;48.752;11.348;2024-03-02T09:40:10;96603.47;;;10.27;100.00
70304;BME280;57712;48.752;11.348;2024-03-02T09:42:37;96591.72;;;9.89;100.00
70304;BME280;57712;48.752;11.348;2024-03-02T09:45:05;96599.84;;;10.18;100.00
70304;BME280;57712;48.752;11.348;2024-03-02T09:47:31;96593.19;;;10.44;100.00
70304;BME280;57712;48.752;11.348;2024-03-02T09:49:59;96593.28;;;10.40;100.00
70304;BME280;57712;48.752;11.348;2024-03-02T09:52:26;96594.38;;;10.56;100.00
70304;BME280;57712;48.752;11.348;2024-03-02T09:54:52;96595.06;;;10.34;100.00
70304;BME280;57712;48.752;11.348;2024-03-02T09:57:19;96594.38;;;10.56;100.00
70304;BME280;57712;48.752;11.348;2024-03-02T09:59:46;96585.41;;;10.43;100.00
70304;BME280;57712;48.752;11.348;2024-03-02T10:02:13;96591.13;;;10.35;100.00
70304;BME280;57712;48.752;11.348;2024-03-02T10:04:53;96582.22;;;10.57;100.00
70304;BME280;57712;48.752;11.348;2024-03-02T10:07:32;96588.31;;;10.61;100.00
70304;BME280;57712;48.752;11.348;2024-03-02T10:10:40;96583.44;;;10.90;100.00
70304;BME280;57712;48.752;11.348;2024-03-02T10:28:45;96571.03;;;10.98;100.00
70304;BME280;57712;48.752;11.348;2024-03-02T10:31:54;96562.66;;;11.37;100.00
70304;BME280;57712;48.752;11.348;2024-03-02T10:48:28;96552.66;;;11.74;100.00
70304;BME280;57712;48.752;11.348;2024-03-02T10:51:19;96557.38;;;11.73;100.00
70304;BME280;57712;48.752;11.348;2024-03-02T10:54:19;96551.66;;;11.80;100.00
70304;BME280;57712;48.752;11.348;2024-03-02T11:00:48;96545.34;;;12.60;100.00
70304;BME280;57712;48.752;11.348;2024-03-02T11:03:49;96537.75;;;12.83;100.00
70304;BME280;57712;48.752;11.348;2024-03-02T11:07:07;96529.81;;;12.76;100.00
70304;BME280;57712;48.752;11.348;2024-03-02T11:13:54;96517.88;;;12.60;100.00
70304;BME280;57712;48.752;11.348;2024-03-02T11:40:26;96491.25;;;14.24;100.00
70304;BME280;57712;48.752;11.348;2024-03-02T11:43:00;96478.69;;;14.80;100.00
70304;BME280;57712;48.752;11.348;2024-03-02T11:49:42;96488.06;;;14.16;100.00
70304;BME280;57712;48.752;11.348;2024-03-02T11:52:48;96472.53;;;14.61;100.00
70304;BME280;57712;48.752;11.348;2024-03-02T11:55:25;96474.78;;;14.15;100.00
70304;BME280;57712;48.752;11.348;2024-03-02T11:58:17;96472.09;;;13.03;100.00
70304;BME280;57712;48.752;11.348;2024-03-02T12:01:05;96456.19;;;13.07;100.00
70304;BME280;57712;48.752;11.348;2024-03-02T12:04:07;96459.56;;;13.63;100.00
70304;BME280;57712;48.752;11.348;2024-03-02T12:09:44;96436.03;;;13.01;100.00
70304;BME280;57712;48.752;11.348;2024-03-02T12:15:35;96428.81;;;13.31;100.00
70304;BME280;57712;48.752;11.348;2024-03-02T12:18:04;96429.22;;;13.81;100.00
70304;BME280;57712;48.752;11.348;2024-03-02T12:20:44;96425.25;;;14.92;100.00
70304;BME280;57712;48.752;11.348;2024-03-02T12:23:18;96420.06;;;14.08;100.00
70304;BME280;57712;48.752;11.348;2024-03-02T12:26:25;96417.56;;;14.58;100.00
70304;BME280;57712;48.752;11.348;2024-03-02T12:49:48;96389.94;;;13.80;100.00
70304;BME280;57712;48.752;11.348;2024-03-02T12:56:14;96387.22;;;15.11;100.00
70304;BME280;57712;48.752;11.348;2024-03-02T12:58:41;96383.47;;;14.31;100.00
70304;BME280;57712;48.752;11.348;2024-03-02T13:01:08;96382.25;;;14.71;100.00
70304;BME280;57712;48.752;11.348;2024-03-02T13:03:37;96382.53;;;14.73;100.00
70304;BME280;57712;48.752;11.348;2024-03-02T13:06:06;96380.38;;;15.07;100.00
70304;BME280;57712;48.752;11.348;2024-03-02T13:08:33;96373.47;;;15.46;100.00
70304;BME280;57712;48.752;11.348;2024-03-02T13:11:00;96371.09;;;14.51;100.00
70304;BME280;57712;48.752;11.348;2024-03-02T13:13:30;96369.91;;;14.96;100.00
70304;BME280;57712;48.752;11.348;2024-03-02T13:15:57;96371.63;;;14.16;100.00
70304;BME280;57712;48.752;11.348;2024-03-02T13:18:24;96362.25;;;14.23;100.00
70304;BME280;57712;48.752;11.348;2024-03-02T13:20:51;96354.09;;;13.90;100.00
70304;BME280;57712;48.752;11.348;2024-03-02T13:23:18;96359.19;;;14.44;100.00
70304;BME280;57712;48.752;11.348;2024-03-02T13:25:46;96357.16;;;14.84;100.00
70304;BME280;57712;48.752;11.348;2024-03-02T13:28:13;96356.94;;;14.19;100.00
70304;BME280;57712;48.752;11.348;2024-03-02T13:30:40;96359.63;;;14.67;100.00
70304;BME280;57712;48.752;11.348;2024-03-02T13:33:07;96357.38;;;14.80;100.00
70304;BME280;57712;48.752;11.348;2024-03-02T13:35:34;96353.91;;;15.15;100.00
70304;BME280;57712;48.752;11.348;2024-03-02T13:38:00;96350.88;;;14.83;100.00
70304;BME280;57712;48.752;11.348;2024-03-02T13:40:27;96340.38;;;16.02;100.00
70304;BME280;57712;48.752;11.348;2024-03-02T13:42:55;96344.03;;;15.23;100.00
70304;BME280;57712;48.752;11.348;2024-03-02T13:45:22;96344.63;;;15.47;100.00
70304;BME280;57712;48.752;11.348;2024-03-02T13:47:49;96342.25;;;14.90;100.00
70304;BME280;57712;48.752;11.348;2024-03-02T13:50:16;96343.19;;;15.02;100.00
70304;BME280;57712;48.752;11.348;2024-03-02T13:52:42;96337.78;;;14.93;100.00
70304;BME280;57712;48.752;11.348;2024-03-02T13:55:09;96333.94;;;14.46;100.00
70304;BME280;57712;48.752;11.348;2024-03-02T13:57:36;96332.06;;;14.96;100.00
70304;BME280;57712;48.752;11.348;2024-03-02T14:00:32;96336.63;;;14.70;100.00
70304;BME280;57712;48.752;11.348;2024-03-02T14:03:09;96335.09;;;14.84;100.00
70304;BME280;57712;48.752;11.348;2024-03-02T14:06:15;96325.41;;;14.88;100.00
70304;BME280;57712;48.752;11.348;2024-03-02T14:09:44;96327.69;;;14.75;100.00
70304;BME280;57712;48.752;11.348;2024-03-02T14:13:04;96328.44;;;14.61;100.00
70304;BME280;57712;48.752;11.348;2024-03-02T14:16:09;96318.72;;;15.10;100.00
70304;BME280;57712;48.752;11.348;2024-03-02T14:19:20;96320.25;;;14.66;100.00
70304;BME280;57712;48.752;11.348;2024-03-02T14:21:56;96314.09;;;14.86;100.00
70304;BME280;57712;48.752;11.348;2024-03-02T14:24:30;96309.63;;;14.74;100.00
70304;BME280;57712;48.752;11.348;2024-03-02T14:27:12;96305.53;;;14.84;100.00
70304;BME280;57712;48.752;11.348;2024-03-02T14:32:59;96300.28;;;14.42;100.00
70304;BME280;57712;48.752;11.348;2024-03-02T14:36:03;96297.94;;;14.11;100.00
70304;BME280;57712;48.752;11.348;2024-03-02T14:39:03;96304.56;;;14.04;100.00
70304;BME280;57712;48.752;11.348;2024-03-02T14:42:01;96295.16;;;13.72;100.00
70304;BME280;57712;48.752;11.348;2024-03-02T14:44:42;96297.84;;;13.81;100.00
70304;BME280;57712;48.752;11.348;2024-03-02T14:47:16;96294.81;;;13.79;100.00
70304;BME280;57712;48.752;11.348;2024-03-02T14:49:43;96297.91;;;13.72;100.00